EST,Max TemperatureF,Mean TemperatureF,Min TemperatureF,Max Dew PointF,MeanDew PointF,Min DewpointF,Max Humidity, Mean Humidity, Min Humidity, Max Sea Level PressureIn, Mean Sea Level PressureIn, Min Sea Level PressureIn, Max VisibilityMiles, Mean VisibilityMiles, Min VisibilityMiles, Max Wind SpeedMPH, Mean Wind SpeedMPH, Max Gust SpeedMPH,PrecipitationIn, CloudCover, Events, WindDirDegrees
2013-11-1,65,57,49,62,49,43,89,67,44,29.79,29.69,29.52,10,9,3,23,11,33,0.07,5,Rain,239
2013-11-2,58,50,42,43,40,35,89,72,55,30.12,29.91,29.78,10,10,10,21,7,27,0.01,4,Rain,273
2013-11-3,57,46,35,40,35,33,85,68,50,30.37,30.27,30.12,10,10,6,10,5,13,0.00,1,,39
2013-11-4,62,52,41,41,37,33,70,56,42,30.40,30.35,30.32,10,10,10,17,8,22,0.00,0,,145
2013-11-5,66,58,49,40,38,35,66,50,34,30.42,30.34,30.25,10,10,10,14,7,16,0.00,0,,155
2013-11-6,71,61,51,61,53,36,97,76,54,30.24,30.08,30.01,10,7,2,29,12,36,0.49,7,Rain,212
2013-11-7,57,46,35,49,36,26,93,68,42,30.29,30.20,30.05,10,10,6,18,9,25,0.19,5,Rain,306
2013-11-8,53,43,32,31,28,25,82,60,38,30.41,30.33,30.28,10,10,10,13,5,18,0.00,0,,239
2013-11-9,61,48,34,33,28,25,75,51,27,30.27,30.19,30.12,10,10,10,26,13,37,0.00,0,,199
2013-11-10,55,45,34,38,29,24,76,54,32,30.36,30.29,30.17,10,10,10,17,7,24,0.00,0,,285
2013-11-11,63,47,31,42,28,22,75,48,20,30.32,30.23,30.13,10,10,10,21,7,26,T,3,,201
2013-11-12,50,37,24,44,26,16,92,68,44,30.64,30.42,30.19,10,8,2,25,13,30,0.08,5,Rain-Snow,357
2013-11-13,41,31,20,24,19,16,92,68,44,30.69,30.59,30.44,10,10,8,12,4,16,0.00,0,,205
2013-11-14,55,41,27,24,19,17,75,50,24,30.44,30.34,30.21,10,10,10,18,10,24,0.00,0,,188
2013-11-15,57,47,36,45,32,20,86,63,39,30.23,30.18,30.13,10,10,9,20,8,25,0.02,4,Rain,177
2013-11-16,63,54,44,54,50,43,96,84,72,30.16,30.08,29.95,10,7,2,24,11,32,0.00,6,,162
2013-11-17,67,61,54,63,58,42,100,81,61,29.93,29.78,29.64,10,8,2,31,16,41,0.88,7,Rain,189
2013-11-18,57,47,37,40,35,27,83,59,35,30.21,30.05,29.87,10,10,10,21,10,28,0.00,0,,280
2013-11-19,46,39,31,29,27,24,78,68,57,30.34,30.29,30.22,10,10,10,16,9,20,0.00,0,,26
2013-11-20,57,43,28,32,28,24,85,60,35,30.31,30.27,30.22,10,10,10,16,8,20,0.00,0,,115
2013-11-21,63,53,43,50,41,29,77,65,53,30.33,30.26,30.21,10,10,10,18,9,23,T,5,,168
2013-11-22,58,50,41,56,50,35,100,89,77,30.35,30.24,30.19,10,6,2,20,10,24,0.45,8,Rain,262
2013-11-23,44,34,23,33,24,11,85,57,29,30.56,30.41,30.34,10,10,10,22,11,28,0.00,4,,335
2013-11-24,30,24,18,14,9,5,68,54,39,30.71,30.60,30.52,10,10,10,16,7,20,0.00,0,,15
2013-11-25,43,33,22,31,18,9,65,49,33,30.53,30.35,30.22,10,9,2,17,8,22,0.02,5,Snow,180
2013-11-26,36,34,32,34,32,29,96,93,89,30.22,30.03,29.90,10,5,1,14,7,17,0.23,8,Rain-Snow,350
2013-11-27,32,26,20,29,23,14,85,77,68,30.34,30.08,29.93,10,8,1,21,11,26,0.01,7,Snow,315
2013-11-28,37,26,15,22,17,12,80,68,56,30.49,30.41,30.34,10,10,10,18,7,23,0.00,0,,206
2013-11-29,45,33,20,26,21,15,84,65,45,30.63,30.56,30.49,10,10,10,10,5,12,0.00,0,,105
2013-11-30,54,42,30,30,26,21,72,55,38,30.49,30.37,30.23,10,10,10,20,9,25,0.00,0,,175